createdAt,value
2023-01-29T00:04:42.118Z,-2.67
2023-01-29T00:09:43.950Z,-2.57
2023-01-29T00:14:45.696Z,-2.64
2023-01-29T00:19:47.448Z,-2.69
2023-01-29T00:24:49.328Z,-2.69
2023-01-29T00:29:51.574Z,-2.85
2023-01-29T00:34:53.351Z,-2.71
2023-01-29T00:39:55.124Z,-2.61
2023-01-29T00:44:56.996Z,-2.57
2023-01-29T00:49:59.552Z,-2.70
2023-01-29T00:55:01.560Z,-2.70
2023-01-29T01:00:06.245Z,-2.71
2023-01-29T01:05:08.496Z,-2.59
2023-01-29T01:10:14.387Z,-2.57
2023-01-29T01:15:16.792Z,-2.71
2023-01-29T01:20:19.047Z,-2.81
2023-01-29T01:25:21.969Z,-2.70
2023-01-29T01:30:23.977Z,-2.92
2023-01-29T01:35:26.002Z,-2.80
2023-01-29T01:40:27.824Z,-2.87
2023-01-29T01:45:36.578Z,-2.96
2023-01-29T01:50:54.058Z,-2.88
2023-01-29T01:55:58.361Z,-2.84
2023-01-29T02:01:00.254Z,-2.95
2023-01-29T02:06:02.135Z,-3.10
2023-01-29T02:11:04.129Z,-3.05
2023-01-29T02:16:06.160Z,-3.07
2023-01-29T02:21:27.986Z,-3.09
2023-01-29T02:26:51.020Z,-3.07
2023-01-29T02:32:08.715Z,-3.13
2023-01-29T02:37:10.557Z,-3.22
2023-01-29T02:42:24.423Z,-3.06
2023-01-29T02:47:35.919Z,-3.19
2023-01-29T02:52:45.602Z,-3.21
2023-01-29T02:57:47.518Z,-3.19
2023-01-29T03:02:51.602Z,-3.13
2023-01-29T03:07:58.577Z,-3.25
2023-01-29T03:13:08.670Z,-3.14
2023-01-29T03:18:12.922Z,-3.24
2023-01-29T03:23:19.769Z,-3.35
2023-01-29T03:28:21.585Z,-3.37
2023-01-29T03:33:24.331Z,-3.35
2023-01-29T03:38:26.224Z,-3.36
2023-01-29T03:43:35.355Z,-3.47
2023-01-29T03:48:40.183Z,-3.46
2023-01-29T03:53:48.849Z,-3.42
2023-01-29T03:59:00.475Z,-3.43
2023-01-29T04:04:03.845Z,-3.42
2023-01-29T04:09:05.634Z,-3.48
2023-01-29T04:14:07.580Z,-3.45
2023-01-29T04:19:09.444Z,-3.39
2023-01-29T04:24:11.501Z,-3.38
2023-01-29T04:29:30.157Z,-3.47
2023-01-29T04:34:55.136Z,-3.41
2023-01-29T04:40:03.378Z,-3.42
2023-01-29T04:45:24.751Z,-3.49
2023-01-29T04:50:38.853Z,-3.37
2023-01-29T04:55:42.120Z,-3.32
2023-01-29T05:00:44.675Z,-3.30
2023-01-29T05:05:47.647Z,-3.40
2023-01-29T05:10:49.881Z,-3.33
2023-01-29T05:16:07.575Z,-3.34
2023-01-29T05:21:09.718Z,-3.34
2023-01-29T05:26:11.455Z,-3.34
2023-01-29T05:31:13.822Z,-3.31
2023-01-29T05:36:15.587Z,-3.30
2023-01-29T05:41:17.449Z,-3.28
2023-01-29T05:46:24.086Z,-3.26
2023-01-29T05:51:25.869Z,-3.27
2023-01-29T05:56:27.561Z,-3.36
2023-01-29T06:01:29.407Z,-3.31
2023-01-29T06:06:31.209Z,-3.39
2023-01-29T06:11:33.143Z,-3.32
2023-01-29T06:16:35.206Z,-3.29
2023-01-29T06:21:37.168Z,-3.30
2023-01-29T06:26:38.907Z,-3.10
2023-01-29T06:31:40.758Z,-2.99
2023-01-29T06:36:42.614Z,-3.13
2023-01-29T06:41:44.571Z,-3.29
2023-01-29T06:46:46.479Z,-3.32
2023-01-29T06:51:48.175Z,-3.29
2023-01-29T06:56:50.070Z,-3.14
2023-01-29T07:01:52.012Z,-3.03
2023-01-29T07:06:53.987Z,-2.86
2023-01-29T07:11:55.742Z,-2.80
2023-01-29T07:16:57.606Z,-2.55
2023-01-29T07:22:00.504Z,-2.32
2023-01-29T07:27:03.007Z,-2.26
2023-01-29T07:32:05.220Z,-2.31
2023-01-29T07:37:07.427Z,-2.26
2023-01-29T07:42:09.362Z,-2.21
2023-01-29T07:47:12.049Z,-2.34
2023-01-29T07:52:13.633Z,-2.34
2023-01-29T07:57:15.731Z,-2.31
2023-01-29T08:02:17.749Z,-2.22
2023-01-29T08:07:19.703Z,-2.25
2023-01-29T08:12:21.536Z,-2.27
2023-01-29T08:17:23.312Z,-2.27
2023-01-29T08:22:25.218Z,-2.04
2023-01-29T08:27:27.098Z,-1.95
2023-01-29T08:32:28.896Z,-1.87
2023-01-29T08:37:30.731Z,-1.98
2023-01-29T08:42:32.567Z,-1.85
2023-01-29T08:47:34.504Z,-1.83
2023-01-29T08:52:36.479Z,-1.91
2023-01-29T08:57:38.884Z,-2.00
2023-01-29T09:02:40.814Z,-2.15
2023-01-29T09:07:42.749Z,-2.20
2023-01-29T09:12:44.645Z,-2.07
2023-01-29T09:17:46.582Z,-2.02
2023-01-29T09:22:48.502Z,-1.97
2023-01-29T09:27:50.404Z,-1.93
2023-01-29T09:32:54.185Z,-1.78
2023-01-29T09:37:56.554Z,-1.69
2023-01-29T09:43:01.270Z,-1.68
2023-01-29T09:48:03.961Z,-1.73
2023-01-29T09:53:25.830Z,-1.78
2023-01-29T09:58:35.421Z,-1.73
2023-01-29T10:03:44.281Z,-1.63
2023-01-29T10:09:25.841Z,-1.62
2023-01-29T10:14:34.505Z,-1.76
2023-01-29T10:19:46.222Z,-1.60
2023-01-29T10:25:09.983Z,-1.56
2023-01-29T10:30:40.412Z,-1.45
2023-01-29T10:35:48.600Z,-1.33
2023-01-29T10:41:00.092Z,-1.39
2023-01-29T10:46:09.232Z,-1.25
2023-01-29T10:51:15.009Z,-1.21
2023-01-29T10:56:50.227Z,-1.32
2023-01-29T11:01:52.214Z,-1.37
2023-01-29T11:06:54.185Z,-1.38
2023-01-29T11:12:29.191Z,-1.31
2023-01-29T11:17:31.427Z,-1.23
2023-01-29T11:22:33.315Z,-1.29
2023-01-29T11:27:42.882Z,-1.37
2023-01-29T11:32:45.241Z,-1.36
2023-01-29T11:37:47.435Z,-1.41
2023-01-29T11:42:49.767Z,-1.61
2023-01-29T11:47:53.898Z,-1.71
2023-01-29T11:52:55.735Z,-1.70
2023-01-29T11:58:04.089Z,-1.63
2023-01-29T12:03:29.904Z,-1.60
2023-01-29T12:08:40.658Z,-1.66
2023-01-29T12:13:42.461Z,-1.85
2023-01-29T12:19:01.534Z,-1.89
2023-01-29T12:24:10.719Z,-1.89
2023-01-29T12:29:15.523Z,-1.97
2023-01-29T12:35:06.454Z,-1.87
2023-01-29T12:40:16.050Z,-1.81
2023-01-29T12:45:19.934Z,-1.83
2023-01-29T12:50:28.157Z,-1.94
2023-01-29T12:55:45.698Z,-2.05
2023-01-29T13:00:49.370Z,-2.09
2023-01-29T13:06:06.612Z,-2.08
2023-01-29T13:11:11.165Z,-2.14
2023-01-29T13:16:14.283Z,-2.11
2023-01-29T13:21:21.288Z,-2.18
2023-01-29T13:26:23.248Z,-2.15
2023-01-29T13:31:38.283Z,-2.18
2023-01-29T13:36:44.641Z,-2.13
2023-01-29T13:41:46.486Z,-2.09
2023-01-29T13:46:50.282Z,-2.10
2023-01-29T13:51:52.091Z,-2.10
2023-01-29T13:56:58.759Z,-2.20
2023-01-29T14:02:01.504Z,-2.25
2023-01-29T14:07:03.390Z,-2.24
2023-01-29T14:12:27.532Z,-2.24
2023-01-29T14:17:29.384Z,-2.14
2023-01-29T14:22:32.629Z,-2.06
2023-01-29T14:27:35.621Z,-2.03
2023-01-29T14:32:39.141Z,-2.07
2023-01-29T14:37:40.907Z,-2.09
2023-01-29T14:42:54.323Z,-2.13
2023-01-29T14:48:11.754Z,-2.14
2023-01-29T14:53:41.277Z,-2.23
2023-01-29T14:58:50.437Z,-2.21
2023-01-29T15:04:00.642Z,-2.27
2023-01-29T15:09:28.772Z,-2.37
2023-01-29T15:14:36.211Z,-2.33
2023-01-29T15:19:46.039Z,-2.36
2023-01-29T15:25:02.059Z,-2.39
2023-01-29T15:30:06.259Z,-2.34
2023-01-29T15:35:10.266Z,-2.46
2023-01-29T15:40:14.338Z,-2.45
2023-01-29T15:45:29.887Z,-2.55
2023-01-29T15:50:31.830Z,-2.70
2023-01-29T15:55:33.661Z,-2.71
2023-01-29T16:00:35.508Z,-2.82
2023-01-29T16:05:37.307Z,-2.85
2023-01-29T16:10:39.074Z,-2.79
2023-01-29T16:15:40.908Z,-2.82
2023-01-29T16:20:46.240Z,-2.82
2023-01-29T16:25:48.151Z,-2.77
2023-01-29T16:30:56.766Z,-2.62
2023-01-29T16:35:58.720Z,-2.59
2023-01-29T16:41:23.224Z,-2.61
2023-01-29T16:46:38.607Z,-2.60
2023-01-29T16:51:40.514Z,-2.60
2023-01-29T16:56:43.780Z,-2.56
2023-01-29T17:01:45.564Z,-2.54
2023-01-29T17:06:49.047Z,-2.52
2023-01-29T17:11:54.007Z,-2.49
2023-01-29T17:17:06.006Z,-2.48
2023-01-29T17:22:07.862Z,-2.49
2023-01-29T17:27:20.359Z,-2.52
2023-01-29T17:32:22.231Z,-2.47
2023-01-29T17:37:24.614Z,-2.59
2023-01-29T17:42:26.363Z,-2.70
2023-01-29T17:47:28.545Z,-2.63
2023-01-29T17:52:30.379Z,-2.58
2023-01-29T17:57:32.806Z,-2.71
2023-01-29T18:02:34.724Z,-2.64
2023-01-29T18:07:40.102Z,-2.68
2023-01-29T18:12:41.929Z,-2.63
2023-01-29T18:17:43.754Z,-2.64
2023-01-29T18:22:45.556Z,-2.62
2023-01-29T18:27:47.307Z,-2.70
2023-01-29T18:32:49.363Z,-2.72
2023-01-29T18:37:51.213Z,-2.68
2023-01-29T18:42:53.162Z,-2.69
2023-01-29T18:47:55.332Z,-2.65
2023-01-29T18:52:57.400Z,-2.51
2023-01-29T18:58:26.719Z,-2.44
2023-01-29T19:03:21.059Z,-2.58
2023-01-29T19:08:22.908Z,-2.46
2023-01-29T19:13:24.879Z,-2.42
2023-01-29T19:18:27.685Z,-2.46
2023-01-29T19:23:29.613Z,-2.46
2023-01-29T19:28:31.524Z,-2.50
2023-01-29T19:33:33.449Z,-2.41
2023-01-29T19:38:35.373Z,-2.58
2023-01-29T19:43:37.275Z,-2.46
2023-01-29T19:48:39.154Z,-2.56
2023-01-29T19:53:41.723Z,-2.47
2023-01-29T19:58:43.782Z,-2.38
2023-01-29T20:03:46.880Z,-2.32
2023-01-29T20:08:48.812Z,-2.32
2023-01-29T20:13:51.530Z,-2.28
2023-01-29T20:18:53.191Z,-2.39
2023-01-29T20:23:55.049Z,-2.38
2023-01-29T20:28:56.898Z,-2.50
2023-01-29T20:33:58.765Z,-2.46
2023-01-29T20:39:00.682Z,-2.52
2023-01-29T20:44:02.795Z,-2.46
2023-01-29T20:49:04.915Z,-2.43
2023-01-29T20:54:06.812Z,-2.45
2023-01-29T20:59:09.013Z,-2.44
2023-01-29T21:04:10.894Z,-2.46
2023-01-29T21:09:12.701Z,-2.42
2023-01-29T21:14:14.684Z,-2.45
2023-01-29T21:19:16.607Z,-2.47
2023-01-29T21:24:18.424Z,-2.48
2023-01-29T21:29:20.285Z,-2.53
2023-01-29T21:34:22.171Z,-2.60
2023-01-29T21:39:24.043Z,-2.60
2023-01-29T21:44:25.867Z,-2.48
2023-01-29T21:49:27.800Z,-2.59
2023-01-29T21:54:29.755Z,-2.53
2023-01-29T21:59:32.133Z,-2.52
2023-01-29T22:04:34.055Z,-2.49
2023-01-29T22:09:36.309Z,-2.52
2023-01-29T22:14:38.157Z,-2.73
2023-01-29T22:19:40.117Z,-2.78
2023-01-29T22:24:42.859Z,-2.81
2023-01-29T22:29:44.769Z,-2.87
2023-01-29T22:34:46.696Z,-2.92
2023-01-29T22:39:48.679Z,-2.91
2023-01-29T22:44:50.629Z,-2.93
2023-01-29T22:49:52.555Z,-2.90
2023-01-29T22:54:54.453Z,-2.79
2023-01-29T22:59:56.290Z,-2.78
2023-01-29T23:04:58.173Z,-2.84
2023-01-29T23:10:00.100Z,-2.77
2023-01-29T23:15:02.191Z,-2.76
2023-01-29T23:20:06.466Z,-2.71
2023-01-29T23:25:08.357Z,-2.83
2023-01-29T23:30:10.933Z,-2.78
2023-01-29T23:35:12.937Z,-2.78
2023-01-29T23:40:15.074Z,-2.87
2023-01-29T23:45:17.100Z,-2.78
2023-01-29T23:50:19.527Z,-2.76
2023-01-29T23:55:21.919Z,-2.67
